createdAt,value
2022-10-28T00:01:07.427Z,73.09
2022-10-28T00:03:38.252Z,70.62
2022-10-28T00:06:10.531Z,71.72
2022-10-28T00:08:37.192Z,72.28
2022-10-28T00:11:15.396Z,72.11
2022-10-28T00:13:42.970Z,72.43
2022-10-28T00:16:12.240Z,72.67
2022-10-28T00:18:39.288Z,72.53
2022-10-28T00:21:12.612Z,73.01
2022-10-28T00:23:39.574Z,70.47
2022-10-28T00:26:17.850Z,71.52
2022-10-28T00:28:50.348Z,71.73
2022-10-28T00:31:19.781Z,71.92
2022-10-28T00:33:46.966Z,71.84
2022-10-28T00:36:27.326Z,72.24
2022-10-28T00:38:55.031Z,72.63
2022-10-28T00:41:36.836Z,72.78
2022-10-28T00:44:37.833Z,73.58
2022-10-28T00:47:05.734Z,74.01
2022-10-28T00:49:34.635Z,74.06
2022-10-28T00:52:06.060Z,74.51
2022-10-28T00:54:33.566Z,73.11
2022-10-28T00:57:02.983Z,73.56
2022-10-28T00:59:34.249Z,74.01
2022-10-28T01:02:01.332Z,72.69
2022-10-28T01:04:28.048Z,72.29
2022-10-28T01:06:56.599Z,72.81
2022-10-28T01:09:23.008Z,71.86
2022-10-28T01:12:08.077Z,72.45
2022-10-28T01:14:44.181Z,73.63
2022-10-28T01:17:38.555Z,73.27
2022-10-28T01:20:23.709Z,73.87
2022-10-28T01:23:01.155Z,73.94
2022-10-28T01:26:00.051Z,74.24
2022-10-28T01:28:45.671Z,74.64
2022-10-28T01:31:19.710Z,75.23
2022-10-28T01:33:57.917Z,75.45
2022-10-28T01:36:36.960Z,75.73
2022-10-28T01:39:22.226Z,76.09
2022-10-28T01:41:57.858Z,76.20
2022-10-28T01:44:30.607Z,76.50
2022-10-28T01:47:04.404Z,76.93
2022-10-28T01:49:41.686Z,77.15
2022-10-28T01:52:12.844Z,77.28
2022-10-28T01:54:42.832Z,77.73
2022-10-28T01:57:12.333Z,77.79
2022-10-28T01:59:41.121Z,78.41
2022-10-28T02:02:07.564Z,78.58
2022-10-28T02:04:33.974Z,78.76
2022-10-28T02:07:00.962Z,78.50
2022-10-28T02:09:47.361Z,74.76
2022-10-28T02:12:19.869Z,74.12
2022-10-28T02:14:55.642Z,74.58
2022-10-28T02:18:00.001Z,75.44
2022-10-28T02:20:40.182Z,75.04
2022-10-28T02:23:15.403Z,75.47
2022-10-28T02:25:49.800Z,75.52
2022-10-28T02:28:22.032Z,75.44
2022-10-28T02:30:55.598Z,74.81
2022-10-28T02:33:26.951Z,74.87
2022-10-28T02:35:59.121Z,74.67
2022-10-28T02:38:32.285Z,74.52
2022-10-28T02:41:03.624Z,74.77
2022-10-28T02:43:33.608Z,75.03
2022-10-28T02:46:03.297Z,75.17
2022-10-28T02:48:49.415Z,75.37
2022-10-28T02:51:21.605Z,74.96
2022-10-28T02:54:09.232Z,75.64
2022-10-28T02:56:42.891Z,75.70
2022-10-28T02:59:13.098Z,75.80
2022-10-28T03:01:40.156Z,75.53
2022-10-28T03:04:06.867Z,75.73
2022-10-28T03:06:33.236Z,75.74
2022-10-28T03:08:59.898Z,76.18
2022-10-28T03:11:26.223Z,76.82
2022-10-28T03:13:52.564Z,77.23
2022-10-28T03:16:19.219Z,77.10
2022-10-28T03:18:45.759Z,77.45
2022-10-28T03:21:12.083Z,76.91
2022-10-28T03:23:38.465Z,77.34
2022-10-28T03:26:04.879Z,77.35
2022-10-28T03:28:31.201Z,77.60
2022-10-28T03:30:57.601Z,77.79
2022-10-28T03:33:23.920Z,77.77
2022-10-28T03:35:50.232Z,77.46
2022-10-28T03:38:16.648Z,77.62
2022-10-28T03:40:42.974Z,76.78
2022-10-28T03:43:09.282Z,76.89
2022-10-28T03:45:35.655Z,76.95
2022-10-28T03:48:02.014Z,76.70
2022-10-28T03:50:28.958Z,77.01
2022-10-28T03:52:55.421Z,76.56
2022-10-28T03:55:21.748Z,76.71
2022-10-28T03:57:48.181Z,76.98
2022-10-28T04:00:15.327Z,76.56
2022-10-28T04:02:41.636Z,76.97
2022-10-28T04:05:09.087Z,76.60
2022-10-28T04:07:35.573Z,77.01
2022-10-28T04:10:01.966Z,77.21
2022-10-28T04:12:28.366Z,77.28
2022-10-28T04:14:54.673Z,77.59
2022-10-28T04:17:21.361Z,77.38
2022-10-28T04:19:47.742Z,77.29
2022-10-28T04:22:14.304Z,77.10
2022-10-28T04:24:40.663Z,76.88
2022-10-28T04:27:06.967Z,76.04
2022-10-28T04:29:33.445Z,76.58
2022-10-28T04:32:00.020Z,77.09
2022-10-28T04:34:26.598Z,76.71
2022-10-28T04:36:52.924Z,76.69
2022-10-28T04:39:19.644Z,76.84
2022-10-28T04:41:46.395Z,76.54
2022-10-28T04:44:13.075Z,76.51
2022-10-28T04:46:39.479Z,76.62
2022-10-28T04:49:05.938Z,76.00
2022-10-28T04:51:32.375Z,76.17
2022-10-28T04:53:58.954Z,76.07
2022-10-28T04:56:25.304Z,76.38
2022-10-28T04:58:51.839Z,76.67
2022-10-28T05:01:18.262Z,76.28
2022-10-28T05:03:44.702Z,76.63
2022-10-28T05:06:11.133Z,75.57
2022-10-28T05:08:37.486Z,76.08
2022-10-28T05:11:04.352Z,76.28
2022-10-28T05:13:30.737Z,76.14
2022-10-28T05:15:57.160Z,73.77
2022-10-28T05:18:23.522Z,73.62
2022-10-28T05:20:50.101Z,73.11
2022-10-28T05:23:16.580Z,72.50
2022-10-28T05:25:42.937Z,72.13
2022-10-28T05:28:09.311Z,72.65
2022-10-28T05:30:35.824Z,73.09
2022-10-28T05:33:02.618Z,73.07
2022-10-28T05:35:30.306Z,72.94
2022-10-28T05:37:57.576Z,73.23
2022-10-28T05:40:24.245Z,73.42
2022-10-28T05:42:50.822Z,73.84
2022-10-28T05:45:17.661Z,73.88
2022-10-28T05:47:48.710Z,74.42
2022-10-28T05:50:18.178Z,74.60
2022-10-28T05:52:54.109Z,74.38
2022-10-28T05:55:22.206Z,74.17
2022-10-28T05:57:50.092Z,73.78
2022-10-28T06:00:19.098Z,73.54
2022-10-28T06:02:45.968Z,72.44
2022-10-28T06:05:12.937Z,72.11
2022-10-28T06:07:41.062Z,72.38
2022-10-28T06:10:09.209Z,73.33
2022-10-28T06:15:06.732Z,73.59
2022-10-28T06:17:33.273Z,73.08
2022-10-28T06:19:59.759Z,73.59
2022-10-28T06:22:26.422Z,73.88
2022-10-28T06:24:52.874Z,74.33
2022-10-28T06:27:19.361Z,73.93
2022-10-28T06:29:45.735Z,73.69
2022-10-28T06:32:12.351Z,74.04
2022-10-28T06:34:38.755Z,73.56
2022-10-28T06:37:05.364Z,73.66
2022-10-28T06:39:32.024Z,73.55
2022-10-28T06:41:58.533Z,73.52
2022-10-28T06:44:24.969Z,73.45
2022-10-28T06:46:52.891Z,72.42
2022-10-28T06:49:19.429Z,70.73
2022-10-28T06:51:45.862Z,68.32
2022-10-28T06:54:12.214Z,68.67
2022-10-28T06:56:38.743Z,68.67
2022-10-28T06:59:05.109Z,67.84
2022-10-28T07:01:31.601Z,66.61
2022-10-28T07:03:58.105Z,66.78
2022-10-28T07:06:24.602Z,66.45
2022-10-28T07:08:51.569Z,66.10
2022-10-28T07:11:18.135Z,66.73
2022-10-28T07:13:46.656Z,67.23
2022-10-28T07:16:15.322Z,67.25
2022-10-28T07:18:41.736Z,67.82
2022-10-28T07:21:08.184Z,67.30
2022-10-28T07:23:34.714Z,68.34
2022-10-28T07:26:01.361Z,68.54
2022-10-28T07:28:28.251Z,69.24
2022-10-28T07:30:54.780Z,69.53
2022-10-28T07:33:21.211Z,70.19
2022-10-28T07:35:47.600Z,70.43
2022-10-28T07:38:14.456Z,71.29
2022-10-28T07:40:40.922Z,71.58
2022-10-28T07:43:07.299Z,71.44
2022-10-28T07:45:34.894Z,72.24
2022-10-28T07:48:01.854Z,71.88
2022-10-28T07:50:28.304Z,71.45
2022-10-28T07:52:55.307Z,71.20
2022-10-28T07:55:21.879Z,70.52
2022-10-28T07:57:48.758Z,71.41
2022-10-28T08:00:15.620Z,70.66
2022-10-28T08:02:42.165Z,67.79
2022-10-28T08:05:08.824Z,66.93
2022-10-28T08:07:38.448Z,65.61
2022-10-28T08:10:06.590Z,65.29
2022-10-28T08:12:33.079Z,65.80
2022-10-28T08:14:59.498Z,63.67
2022-10-28T08:17:25.840Z,63.00
2022-10-28T08:19:52.209Z,63.12
2022-10-28T08:22:20.724Z,63.48
2022-10-28T08:24:47.074Z,63.37
2022-10-28T08:27:13.632Z,62.39
2022-10-28T08:29:40.002Z,62.60
2022-10-28T08:32:09.511Z,58.25
2022-10-28T08:34:39.262Z,58.23
2022-10-28T08:37:08.932Z,57.14
2022-10-28T08:39:35.334Z,55.10
2022-10-28T08:42:13.827Z,54.99
2022-10-28T08:44:53.485Z,57.05
2022-10-28T08:47:47.653Z,56.16
2022-10-28T08:50:16.487Z,56.79
2022-10-28T08:52:58.920Z,56.76
2022-10-28T08:55:38.620Z,57.06
2022-10-28T08:58:11.595Z,56.26
2022-10-28T09:00:40.077Z,55.21
2022-10-28T09:03:12.441Z,54.72
2022-10-28T09:05:41.279Z,55.32
2022-10-28T09:08:19.227Z,54.46
2022-10-28T09:10:54.486Z,53.63
2022-10-28T09:13:45.969Z,54.02
2022-10-28T09:16:25.153Z,53.24
2022-10-28T09:18:56.809Z,53.28
2022-10-28T09:21:37.667Z,53.22
2022-10-28T09:24:15.804Z,55.20
2022-10-28T09:26:57.422Z,54.32
2022-10-28T09:29:45.592Z,55.01
2022-10-28T09:32:33.767Z,54.86
2022-10-28T09:35:06.491Z,54.22
2022-10-28T09:37:38.195Z,54.77
2022-10-28T09:40:15.558Z,53.85
2022-10-28T09:42:52.716Z,53.55
2022-10-28T09:45:26.542Z,53.82
2022-10-28T09:48:01.488Z,53.67
2022-10-28T09:50:31.862Z,54.35
2022-10-28T09:53:23.034Z,54.81
2022-10-28T09:55:51.143Z,54.58
2022-10-28T09:58:18.791Z,56.07
2022-10-28T10:00:45.405Z,55.88
2022-10-28T10:03:11.863Z,55.54
2022-10-28T10:05:42.357Z,54.80
2022-10-28T10:08:14.374Z,55.19
2022-10-28T10:10:59.240Z,53.65
2022-10-28T10:13:29.563Z,53.53
2022-10-28T10:16:00.803Z,53.38
2022-10-28T10:18:31.009Z,54.03
2022-10-28T10:20:58.018Z,54.14
2022-10-28T10:23:33.257Z,54.66
2022-10-28T10:26:09.489Z,53.91
2022-10-28T10:28:43.338Z,54.14
2022-10-28T10:31:20.532Z,53.93
2022-10-28T10:33:50.448Z,51.91
2022-10-28T10:36:18.911Z,52.38
2022-10-28T10:38:53.570Z,51.52
2022-10-28T10:41:42.745Z,50.86
2022-10-28T10:44:21.546Z,47.49
2022-10-28T10:47:04.937Z,48.97
2022-10-28T10:49:34.674Z,48.58
2022-10-28T10:52:17.708Z,48.82
2022-10-28T10:54:58.761Z,47.91
2022-10-28T10:57:26.021Z,48.69
2022-10-28T10:59:54.370Z,47.58
2022-10-28T11:02:26.407Z,48.93
2022-10-28T11:04:57.414Z,47.23
2022-10-28T11:07:24.394Z,47.96
2022-10-28T11:09:51.620Z,46.29
2022-10-28T11:12:30.145Z,47.07
2022-10-28T11:14:59.088Z,47.16
2022-10-28T11:17:28.744Z,47.18
2022-10-28T11:19:58.457Z,47.83
2022-10-28T11:22:53.753Z,48.02
2022-10-28T11:25:43.442Z,47.72
2022-10-28T11:28:25.058Z,47.91
2022-10-28T11:31:03.371Z,48.47
2022-10-28T11:33:33.262Z,49.32
2022-10-28T11:36:07.148Z,48.80
2022-10-28T11:38:45.857Z,48.19
2022-10-28T11:41:21.303Z,48.29
2022-10-28T11:43:57.559Z,49.16
2022-10-28T11:47:00.924Z,49.54
2022-10-28T11:49:33.207Z,49.11
2022-10-28T11:52:22.819Z,48.63
2022-10-28T11:55:21.108Z,47.54
2022-10-28T11:58:10.371Z,48.13
2022-10-28T12:00:55.613Z,48.36
2022-10-28T12:03:41.077Z,48.33
2022-10-28T12:06:11.230Z,48.62
2022-10-28T12:08:45.272Z,47.08
2022-10-28T12:11:16.733Z,46.86
2022-10-28T12:13:45.997Z,47.19
2022-10-28T12:16:30.886Z,46.01
2022-10-28T12:19:03.688Z,47.56
2022-10-28T12:21:37.582Z,46.32
2022-10-28T12:24:12.023Z,45.72
2022-10-28T12:26:43.528Z,44.47
2022-10-28T12:29:18.820Z,44.00
2022-10-28T12:31:53.962Z,45.53
2022-10-28T12:34:28.665Z,45.69
2022-10-28T12:37:17.822Z,44.48
2022-10-28T12:39:51.550Z,44.16
2022-10-28T12:42:28.942Z,44.28
2022-10-28T12:44:59.002Z,44.93
2022-10-28T12:47:43.305Z,44.46
2022-10-28T12:50:31.729Z,43.95
2022-10-28T12:53:14.282Z,44.58
2022-10-28T12:55:52.400Z,44.68
2022-10-28T12:58:33.841Z,45.95
2022-10-28T13:01:08.731Z,44.07
2022-10-28T13:03:35.907Z,43.07
2022-10-28T13:06:27.146Z,42.73
2022-10-28T13:09:18.245Z,42.40
2022-10-28T13:12:02.679Z,42.45
2022-10-28T13:14:50.664Z,42.38
2022-10-28T13:17:42.133Z,41.99
2022-10-28T13:20:19.366Z,42.12
2022-10-28T13:22:55.500Z,42.35
2022-10-28T13:25:33.674Z,42.11
2022-10-28T13:28:01.190Z,42.15
2022-10-28T13:30:28.941Z,42.23
2022-10-28T13:33:06.250Z,41.70
2022-10-28T13:35:33.408Z,41.96
2022-10-28T13:38:01.557Z,42.49
2022-10-28T13:40:30.705Z,42.38
2022-10-28T13:42:58.823Z,42.09
2022-10-28T13:45:51.542Z,41.96
2022-10-28T13:48:30.089Z,41.88
2022-10-28T13:51:11.749Z,42.66
2022-10-28T13:53:47.213Z,42.26
2022-10-28T13:56:49.690Z,43.02
2022-10-28T13:59:26.917Z,42.85
2022-10-28T14:02:32.304Z,43.44
2022-10-28T14:04:58.353Z,42.94
2022-10-28T14:07:31.671Z,44.08
2022-10-28T14:10:16.225Z,43.53
2022-10-28T14:13:22.441Z,43.78
2022-10-28T14:15:50.365Z,42.53
2022-10-28T14:18:41.386Z,43.49
2022-10-28T14:21:03.350Z,43.44
2022-10-28T14:23:29.707Z,43.12
2022-10-28T14:26:00.804Z,43.45
2022-10-28T14:28:27.134Z,44.52
2022-10-28T14:31:08.793Z,44.36
2022-10-28T14:33:37.040Z,44.56
2022-10-28T14:36:18.667Z,45.79
2022-10-28T14:39:03.178Z,46.77
2022-10-28T14:42:07.209Z,45.79
2022-10-28T14:45:01.624Z,46.14
2022-10-28T14:47:50.815Z,45.82
2022-10-28T14:50:44.972Z,46.26
2022-10-28T14:53:18.545Z,47.19
2022-10-28T14:55:50.023Z,47.62
2022-10-28T14:58:24.609Z,47.18
2022-10-28T15:01:17.345Z,47.78
2022-10-28T15:03:49.929Z,48.56
2022-10-28T15:06:30.177Z,48.69
2022-10-28T15:09:02.806Z,49.20
2022-10-28T15:11:29.224Z,48.93
2022-10-28T15:14:13.060Z,48.92
2022-10-28T15:16:46.861Z,48.21
2022-10-28T15:19:17.356Z,48.56
2022-10-28T15:21:43.814Z,49.50
2022-10-28T15:24:13.909Z,49.80
2022-10-28T15:26:40.443Z,50.13
2022-10-28T15:29:06.956Z,50.91
2022-10-28T15:31:33.614Z,50.58
2022-10-28T15:34:00.016Z,51.63
2022-10-28T15:36:26.979Z,51.61
2022-10-28T15:39:16.665Z,50.93
2022-10-28T15:41:48.003Z,52.21
2022-10-28T15:44:36.590Z,52.35
2022-10-28T15:47:27.805Z,52.66
2022-10-28T15:50:19.888Z,52.36
2022-10-28T15:52:51.947Z,53.42
2022-10-28T15:55:18.283Z,52.89
2022-10-28T15:57:59.701Z,52.97
2022-10-28T16:00:34.041Z,53.55
2022-10-28T16:03:05.759Z,53.80
2022-10-28T16:05:32.206Z,53.00
2022-10-28T16:08:00.998Z,54.19
2022-10-28T16:10:43.368Z,54.43
2022-10-28T16:13:19.026Z,52.78
2022-10-28T16:15:58.426Z,53.88
2022-10-28T16:18:26.776Z,54.15
2022-10-28T16:20:54.767Z,53.51
2022-10-28T16:23:24.434Z,54.45
2022-10-28T16:25:50.867Z,55.77
2022-10-28T16:28:23.505Z,54.95
2022-10-28T16:30:59.125Z,55.51
2022-10-28T16:33:31.926Z,56.42
2022-10-28T16:35:58.620Z,57.00
2022-10-28T16:38:25.160Z,55.97
2022-10-28T16:40:52.682Z,56.25
2022-10-28T16:43:22.602Z,56.92
2022-10-28T16:45:50.465Z,56.00
2022-10-28T16:48:18.436Z,56.53
2022-10-28T16:50:49.844Z,56.64
2022-10-28T16:53:16.452Z,56.27
2022-10-28T16:55:43.006Z,58.03
2022-10-28T16:58:09.682Z,58.33
2022-10-28T17:00:37.089Z,58.43
2022-10-28T17:03:03.977Z,58.65
2022-10-28T17:05:30.818Z,58.74
2022-10-28T17:07:57.473Z,58.78
2022-10-28T17:10:24.724Z,59.02
2022-10-28T17:12:51.301Z,59.30
2022-10-28T17:15:18.236Z,59.71
2022-10-28T17:17:48.187Z,60.30
2022-10-28T17:20:14.674Z,60.47
2022-10-28T17:22:41.052Z,60.61
2022-10-28T17:25:08.604Z,59.80
2022-10-28T17:27:37.250Z,60.36
2022-10-28T17:30:04.935Z,60.90
2022-10-28T17:32:31.540Z,59.61
2022-10-28T17:34:57.939Z,59.98
2022-10-28T17:37:24.294Z,59.78
2022-10-28T17:39:50.657Z,59.83
2022-10-28T17:42:17.142Z,61.05
2022-10-28T17:44:43.501Z,60.42
2022-10-28T17:47:09.846Z,61.07
2022-10-28T17:49:36.248Z,60.62
2022-10-28T17:52:02.636Z,61.40
2022-10-28T17:54:29.081Z,61.86
2022-10-28T17:56:55.379Z,61.64
2022-10-28T17:59:21.802Z,61.32
2022-10-28T18:01:48.574Z,61.25
2022-10-28T18:04:15.477Z,62.00
2022-10-28T18:06:41.834Z,60.04
2022-10-28T18:09:12.348Z,60.08
2022-10-28T18:11:38.899Z,60.28
2022-10-28T18:14:05.735Z,60.29
2022-10-28T18:16:32.394Z,59.09
2022-10-28T18:19:05.933Z,60.39
2022-10-28T18:21:32.861Z,60.89
2022-10-28T18:23:59.351Z,61.27
2022-10-28T18:26:25.783Z,60.67
2022-10-28T18:28:52.100Z,60.38
2022-10-28T18:31:20.363Z,60.25
2022-10-28T18:33:47.147Z,60.78
2022-10-28T18:36:23.185Z,61.72
2022-10-28T18:38:50.778Z,60.10
2022-10-28T18:41:25.928Z,59.88
2022-10-28T18:43:53.974Z,60.93
2022-10-28T18:46:20.412Z,60.19
2022-10-28T18:48:46.786Z,61.30
2022-10-28T18:51:13.728Z,60.98
2022-10-28T18:53:42.337Z,60.42
2022-10-28T18:56:15.915Z,61.63
2022-10-28T18:58:42.860Z,60.63
2022-10-28T19:01:12.018Z,61.61
2022-10-28T19:03:39.215Z,61.60
2022-10-28T19:06:09.042Z,61.63
2022-10-28T19:08:35.463Z,61.97
2022-10-28T19:11:03.020Z,62.31
2022-10-28T19:13:33.173Z,62.98
2022-10-28T19:15:59.905Z,63.54
2022-10-28T19:18:26.341Z,64.19
2022-10-28T19:20:52.751Z,64.12
2022-10-28T19:23:19.092Z,64.84
2022-10-28T19:25:56.517Z,64.47
2022-10-28T19:28:22.958Z,64.41
2022-10-28T19:30:49.506Z,64.67
2022-10-28T19:33:16.014Z,65.05
2022-10-28T19:35:42.468Z,64.82
2022-10-28T19:38:09.014Z,64.58
2022-10-28T19:40:35.566Z,65.00
2022-10-28T19:43:02.083Z,64.70
2022-10-28T19:45:28.463Z,64.82
2022-10-28T19:47:55.319Z,65.56
2022-10-28T19:50:22.115Z,65.22
2022-10-28T19:52:48.451Z,66.16
2022-10-28T19:55:15.264Z,66.07
2022-10-28T19:57:41.736Z,66.08
2022-10-28T20:00:09.468Z,65.98
2022-10-28T20:02:35.838Z,64.03
2022-10-28T20:05:02.355Z,64.15
2022-10-28T20:07:28.892Z,65.05
2022-10-28T20:09:55.326Z,65.42
2022-10-28T20:12:21.992Z,65.84
2022-10-28T20:14:48.656Z,66.26
2022-10-28T20:17:15.152Z,66.68
2022-10-28T20:19:41.494Z,67.11
2022-10-28T20:22:07.984Z,67.78
2022-10-28T20:24:34.352Z,67.65
2022-10-28T20:27:00.772Z,68.24
2022-10-28T20:29:27.105Z,68.36
2022-10-28T20:31:53.490Z,68.70
2022-10-28T20:34:19.773Z,68.64
2022-10-28T20:36:46.188Z,69.62
2022-10-28T20:39:15.104Z,70.42
2022-10-28T20:41:43.481Z,70.17
2022-10-28T20:44:10.208Z,71.22
2022-10-28T20:46:36.795Z,70.98
2022-10-28T20:49:03.997Z,71.68
2022-10-28T20:51:32.535Z,71.60
2022-10-28T20:53:59.951Z,71.61
2022-10-28T20:56:31.273Z,72.28
2022-10-28T20:58:58.525Z,72.99
2022-10-28T21:01:27.780Z,73.08
2022-10-28T21:04:05.212Z,73.93
2022-10-28T21:06:32.369Z,74.17
2022-10-28T21:08:58.988Z,74.38
2022-10-28T21:11:27.164Z,74.91
2022-10-28T21:13:56.351Z,74.61
2022-10-28T21:16:24.181Z,75.14
2022-10-28T21:18:50.788Z,74.88
2022-10-28T21:21:19.305Z,75.39
2022-10-28T21:23:45.647Z,76.22
2022-10-28T21:26:12.891Z,76.11
2022-10-28T21:28:39.990Z,76.64
2022-10-28T21:31:11.929Z,76.71
2022-10-28T21:33:44.062Z,76.36
2022-10-28T21:36:18.092Z,76.62
2022-10-28T21:38:44.858Z,76.62
2022-10-28T21:41:19.014Z,76.88
2022-10-28T21:43:47.948Z,76.88
2022-10-28T21:46:15.096Z,76.77
2022-10-28T21:48:41.456Z,77.35
2022-10-28T21:51:14.706Z,77.64
2022-10-28T21:53:42.094Z,77.74
2022-10-28T21:56:15.582Z,78.18
2022-10-28T21:58:44.095Z,78.49
2022-10-28T22:01:13.545Z,77.81
2022-10-28T22:03:40.879Z,78.27
2022-10-28T22:06:08.683Z,78.44
2022-10-28T22:08:35.278Z,78.37
2022-10-28T22:11:04.494Z,78.57
2022-10-28T22:13:30.856Z,78.45
2022-10-28T22:16:10.275Z,78.61
2022-10-28T22:18:37.836Z,78.61
2022-10-28T22:21:06.106Z,78.22
2022-10-28T22:23:32.885Z,77.79
2022-10-28T22:26:07.041Z,77.82
2022-10-28T22:28:34.213Z,77.67
2022-10-28T22:31:02.566Z,77.19
2022-10-28T22:33:28.915Z,77.11
2022-10-28T22:35:59.798Z,77.45
2022-10-28T22:38:27.021Z,77.42
2022-10-28T22:41:06.918Z,77.11
2022-10-28T22:43:33.930Z,77.36
2022-10-28T22:46:01.216Z,77.78
2022-10-28T22:48:28.073Z,77.70
2022-10-28T22:50:54.631Z,78.11
2022-10-28T22:53:21.230Z,77.84
2022-10-28T22:55:48.030Z,78.67
2022-10-28T22:58:16.401Z,78.28
2022-10-28T23:00:43.540Z,78.66
2022-10-28T23:03:09.953Z,79.13
2022-10-28T23:05:36.354Z,78.79
2022-10-28T23:08:02.749Z,79.24
2022-10-28T23:10:29.251Z,80.05
2022-10-28T23:13:01.352Z,80.15
2022-10-28T23:15:29.101Z,80.13
2022-10-28T23:17:56.276Z,80.33
2022-10-28T23:20:25.046Z,80.53
2022-10-28T23:22:55.441Z,80.84
2022-10-28T23:25:22.410Z,81.04
2022-10-28T23:27:48.904Z,81.19
2022-10-28T23:30:15.355Z,81.31
2022-10-28T23:32:42.119Z,81.15
2022-10-28T23:35:08.969Z,80.87
2022-10-28T23:37:35.722Z,81.30
2022-10-28T23:40:02.416Z,81.35
2022-10-28T23:42:29.119Z,81.24
2022-10-28T23:44:55.889Z,81.60
2022-10-28T23:47:22.595Z,81.16
2022-10-28T23:49:49.277Z,81.59
2022-10-28T23:52:15.951Z,81.67
2022-10-28T23:54:42.939Z,81.99
2022-10-28T23:57:12.692Z,82.78
2022-10-28T23:59:39.405Z,82.49
